KMLB

Melbourne International Airport

Melbourne, Florida, USA
KMLB 202341Z 2100/2124 04010KT P6SM FEW030 FM210600 08012KT P6SM VCSH SCT020 BKN040 FM211400 08016G24KT P6SM VCSH SCT025 BKN050
Issued Valid From Valid To
Apr-20 @ 23:41 UTC
(4 hours ago)
Apr-21 @ 00:00 UTC
(4 hours ago)
Apr-22 @ 00:00 UTC
(in 20 hours)
Apr-21 @ 00:00 to Apr-21 @ 06:00
KMLB 202341Z 2100/2124 04010KT P6SM FEW030
Wind Visibility Clouds
40° at 10 knots Greater than 6 miles
  • Few at 3,000' AGL
From Apr-21 @ 06:00 to Apr-21 @ 14:00
FM210600 08012KT P6SM VCSH SCT020 BKN040
Wind Visibility Clouds
80° at 12 knots Greater than 6 miles
  • Scattered at 2,000' AGL
  • Broken at 4,000' AGL
From Apr-21 @ 14:00 to Apr-22 @ 00:00
FM211400 08016G24KT P6SM VCSH SCT025 BKN050
Wind Visibility Clouds
80° at 16 knots
 Gusting to 24 knots
Greater than 6 miles
  • Scattered at 2,500' AGL
  • Broken at 5,000' AGL
KMLB 202341Z 2100/2124 04010KT P6SM FEW030 FM210600 08012KT P6SM VCSH SCT020 BKN040 FM211400 08016G24KT P6SM VCSH SCT025 BKN050
Issued Apr-20 @ 23:41 UTC
(4 hours ago)
Valid From Apr-21 @ 00:00 UTC
(4 hours ago)
Valid To Apr-22 @ 00:00 UTC
(in 20 hours)
Apr-21 @ 00:00 - Apr-21 @ 06:00
Wind Visibility
40° at 10 knots Greater than 6 miles
Clouds
  • Few at 3,000' AGL
From Apr-21 @ 06:00 - Apr-21 @ 14:00
Wind Visibility
80° at 12 knots Greater than 6 miles
Clouds
  • Scattered at 2,000' AGL
  • Broken at 4,000' AGL
From Apr-21 @ 14:00 - Apr-22 @ 00:00
Wind Visibility
80° at 16 knots
 Gusting to 24 knots
Greater than 6 miles
Clouds
  • Scattered at 2,500' AGL
  • Broken at 5,000' AGL